Scottish Airport Reports

Civil airfields updated at H+20 and H+50
RAF airfields updated at H+50 only

EGPD - Aberdeen
Distance from station: NNE 19mi, 31km
Updated: 06/04/2020 18:20
Clear
Clear
 Wind from W
Wind: W 8 mph , 13 km/h
Temperature: 11°C
Dew Point: 0°C
Humidity: 47%
Barometer: 1015 hPa
Clouds: Clear
Visibility: 6 miles , 10 km
2020/04/06 17:20 EGPD 061720Z AUTO 27007KT 250V310 9999 NCD 11/00 Q1015 NOSIG
EGPN - Dundee
Distance from station: SW 41mi, 66km
Updated: 06/04/2020 18:20
Few Clouds
Few Clouds
 Wind from W
Wind: W 16 mph , 26 km/h
Temperature: 11°C
Dew Point: 5°C
Humidity: 67%
Barometer: 1016 hPa
Clouds: Few Clouds
Visibility: 6 miles , 10 km
Cloud details: Few Clouds 4000 ft
2020/04/06 17:20 EGPN 061720Z 26014KT 9999 FEW040 11/05 Q1016
 
EGQS - RAF Lossiemouth
Distance from station: NNW 63mi, 102km
Updated: 06/04/2020 17:50
Clear
Clear
 Wind from W
Wind: W 20 mph , 31 km/h
Temperature: 11°C
Dew Point: 1°C
Humidity: 50%
Barometer: 1013 hPa
Summary: Clear
Visibility: greater than 7 miles , 10 km
2020/04/06 16:50 EGQS 061650Z 26017KT CAVOK 11/01 Q1013 NOSIG RMK BLU BLU
EGPE - Inverness
Distance from station: WNW 73mi, 117km
Updated: 06/04/2020 18:20
Light rain, Showers, Partly cloudy
Light rain, Showers, Partly cloudy
 Wind from WSW
Wind: WSW 12 mph , 19 km/h, Gust: 24 mph , 39 km/h
Temperature: 10°C
Wind Chill: 7°C
Dew Point: 2°C
Humidity: 58%
Barometer: 1014 hPa
Summary: Light rain, Showers
Clouds: Partly cloudy
Visibility: 6 miles , 10 km
Cloud details: Few Clouds 1200 ft
Partly cloudy 3900 ft
2020/04/06 17:20 EGPE 061720Z 24010G21KT 9999 -SHRA FEW012 SCT039 10/02 Q1014
 
EGPH - Edinburgh
Distance from station: SSW 77mi, 125km
Updated: 06/04/2020 18:20
Few Clouds
Few Clouds
 Wind from W
Wind: W 16 mph , 26 km/h
Temperature: 12°C
Dew Point: 1°C
Humidity: 47%
Barometer: 1016 hPa
Clouds: Few Clouds
Visibility: 6 miles , 10 km
Cloud details: Few Clouds 4900 ft
2020/04/06 17:20 EGPH 061720Z 26014KT 9999 FEW049 12/01 Q1016
EGPC - Wick
Distance from station: NNW 107mi, 172km
Updated: 06/04/2020 18:20
Clear
Clear
 Wind from WSW
Wind: WSW 14 mph , 22 km/h
Temperature: 10°C
Wind Chill: 7°C
Dew Point: 1°C
Humidity: 54%
Barometer: 1012 hPa
Clouds: Clear
Visibility: 6 miles , 10 km
2020/04/06 17:20 EGPC 061720Z AUTO 25012KT 9999 NCD 10/01 Q1012
 
EGPF - Glasgow
Distance from station: SW 107mi, 172km
Updated: 06/04/2020 18:20
Clear
Clear
 Wind from WSW
Wind: WSW 18 mph , 30 km/h
Temperature: 11°C
Dew Point: 2°C
Humidity: 54%
Barometer: 1017 hPa
Clouds: Clear
Visibility: 6 miles , 10 km
2020/04/06 17:20 EGPF 061720Z AUTO 24016KT 9999 NCD 11/02 Q1017
EGPK - Prestwick
Distance from station: SW 130mi, 209km
Updated: 06/04/2020 18:20
Few Clouds
Few Clouds
 Wind from SW
Wind: SW 9 mph , 15 km/h
Temperature: 10°C
Wind Chill: 8°C
Dew Point: 3°C
Humidity: 62%
Barometer: 1018 hPa
Clouds: Few Clouds
Visibility: 6 miles , 10 km
Cloud details: Few Clouds 3500 ft
2020/04/06 17:20 EGPK 061720Z 22008KT 9999 FEW035 10/03 Q1018
 
EGPA - Kirkwall, Orkney
Distance from station: N 140mi, 225km
Updated: 06/04/2020 18:20
Clear
Clear
 Wind from WSW
Wind: WSW 18 mph , 30 km/h
Temperature: 9°C
Wind Chill: 5°C
Dew Point: 3°C
Humidity: 66%
Barometer: 1011 hPa
Clouds: Clear
Visibility: 6 miles , 10 km
2020/04/06 17:20 EGPA 061720Z AUTO 24016KT 9999 NCD 09/03 Q1011
EGPO - Stornoway, Outer Hebrides
Distance from station: WNW 169mi, 273km
Updated: 06/04/2020 18:20
Mostly cloudy
Mostly cloudy
 Wind from SW
Wind: SW 21 mph , 33 km/h
Temperature: 8°C
Wind Chill: 3°C
Dew Point: 2°C
Humidity: 66%
Barometer: 1011 hPa
Clouds: Mostly cloudy
Visibility: 6 miles , 10 km
Cloud details: Mostly cloudy 3300 ft
2020/04/06 17:20 EGPO 061720Z AUTO 23018KT 9999 BKN033/// 08/02 Q1011
 
EGPI - Islay, Inner Hebrides
Distance from station: WSW 172mi, 276km
Updated: 06/04/2020 17:50
Clear
Clear
 Wind from W
Wind: W 15 mph , 24 km/h
Temperature: 10°C
Wind Chill: 7°C
Dew Point: 5°C
Humidity: 71%
Barometer: 1017 hPa
Clouds: Clear
Visibility: 6 miles , 10 km
2020/04/06 16:50 EGPI 061650Z AUTO 26013KT 9999 NCD 10/05 Q1017
EGPU - Tiree, Inner Hebrides
Distance from station: W 172mi, 276km
Updated: 06/04/2020 17:50
Few Clouds
Few Clouds
 Wind from WSW
Wind: WSW 20 mph , 31 km/h
Temperature: 9°C
Wind Chill: 5°C
Dew Point: 4°C
Humidity: 71%
Barometer: 1015 hPa
Clouds: Few Clouds
Visibility: 6 miles , 10 km
Cloud details: Few Clouds 2500 ft
2020/04/06 16:50 EGPU 061650Z AUTO 25017KT 9999 FEW025/// 09/04 Q1015
 
EGPB - Sumburgh, Shetland
Distance from station: NNE 208mi, 332km
Updated: 06/04/2020 17:50
Clear
Clear
 Wind from WSW
Wind: WSW 25 mph , 41 km/h
Temperature: 9°C
Wind Chill: 4°C
Dew Point: 4°C
Humidity: 71%
Barometer: 1009 hPa
Summary: Clear
Visibility: greater than 7 miles , 10 km
2020/04/06 16:50 EGPB 061650Z 24022KT CAVOK 09/04 Q1009
EGPM - Scatsa, Shetland
Distance from station: NNE 245mi, 392km
Updated: 06/04/2020 18:20
Few Clouds
Few Clouds
 Wind from WSW
Wind: WSW 26 mph , 43 km/h
Temperature: 8°C
Wind Chill: 3°C
Dew Point: 4°C
Humidity: 76%
Barometer: 1008 hPa
Clouds: Few Clouds
Visibility: 6 miles , 10 km
Cloud details: Few Clouds 800 ft
2020/04/06 17:20 EGPM 061720Z AUTO 24023KT 9999 FEW008/// 08/04 Q1008
-->